audi.nl alexa rank chart, audi.nl alexa rank daily changes

audi.nl alexa rank chart, audi.nl alexa rank daily changes

audi.nl
Actual rank:
219 388

RANK HISTORY

Date Rank Diff
2017/05/01 219 388 +2 921
2017/04/30 216 467 +6 811
2017/04/29 209 656 +1 045
2017/04/28 208 611 +311
2017/04/27 208 300 -525
2017/04/26 208 825 +2 000
2017/04/25 206 825 -492
2017/04/24 207 317 -4 633
2017/04/23 211 950 +1 026
2017/04/22 210 924 -3 631
2017/04/21 214 555 -240
2017/04/20 214 795 -2 527
2017/04/19 217 322 +3 539
2017/04/18 213 783 -1 116
2017/04/17 214 899 -5 599
2017/04/16 220 498 -8 293
2017/04/15 228 791 -374
2017/04/14 229 165 -576
2017/04/13 229 741 +712
2017/04/12 229 029 +1 035
2017/04/11 227 994 +1 750
2017/04/10 226 244 +1 915
2017/04/09 224 329 +7 857
2017/04/08 216 472 -29
2017/04/07 216 501 -3 337
2017/04/06 219 838 -7 887
2017/04/05 227 725 +6 447
2017/04/04 221 278 -7 129
2017/04/03 228 407 -223
2017/04/02 228 630 -5 329
2017/04/01 233 959 -3 148
2017/03/31 237 107 +3 110
2017/03/30 233 997 -10 064
2017/03/29 244 061 +3 793
2017/03/28 240 268 +7 764
2017/03/27 232 504 -2 386
2017/03/26 234 890 +4 142
2017/03/25 230 748 -2 930
2017/03/24 233 678 +3 960
2017/03/23 229 718 -3 520
2017/03/22 233 238 -3 109
2017/03/21 236 347 +3 526
2017/03/20 232 821 -1 678
2017/03/19 234 499 -7 511
2017/03/18 242 010 -2 653
2017/03/17 244 663 +9 598
2017/03/16 235 065 +208
2017/03/15 234 857 -4 915
2017/03/14 239 772 -3 889
2017/03/13 243 661 +1 280
2017/03/12 242 381 +3 796
2017/03/11 238 585 +626
2017/03/10 237 959 -642
2017/03/09 238 601 -5 429
2017/03/08 244 030 +1 449
2017/03/07 242 581 -871
2017/03/06 243 452

WIDGET FOR YOUR SITE

DOMAINS WITH THE NEAREST RANK

Domain Rank
riyadcapital.com 219 383
cmmri.com 219 384
opodo.it 219 385
direct-commu.com 219 386
power.se 219 387
audi.nl 219 388
fm-zocker.de 219 389
10240.ml 219 390
034portal.hr 219 391
dinneratthezoo.com 219 392
clevvermail.com 219 393

DOMAINS WITH THE NEAREST RANK BY TLD .nl

Domain Rank
eglobalcentral.nl 218 831
leaseplan.nl 218 846
surf.nl 219 068
nd.nl 219 295
novacollege.nl 219 325
audi.nl 219 388
renault.nl 220 212
sportnieuws.nl 220 227
tabletsmagazine.nl 220 549
managementboek.nl 220 915
nibud.nl 221 026